createdAt,value
2022-11-28T00:01:27.117Z,100308.00
2022-11-28T00:03:53.927Z,100263.94
2022-11-28T00:06:20.993Z,100324.09
2022-11-28T00:08:47.961Z,100329.19
2022-11-28T00:11:16.309Z,100331.72
2022-11-28T00:13:43.570Z,100249.66
2022-11-28T00:16:14.992Z,100336.97
2022-11-28T00:18:41.897Z,100298.00
2022-11-28T00:21:11.626Z,100332.84
2022-11-28T00:23:38.663Z,100315.09
2022-11-28T00:26:08.658Z,100273.50
2022-11-28T00:28:35.783Z,100327.66
2022-11-28T00:31:03.771Z,100328.47
2022-11-28T00:33:31.634Z,100330.16
2022-11-28T00:36:00.177Z,100318.19
2022-11-28T00:38:26.966Z,100328.31
2022-11-28T00:41:18.119Z,100318.94
2022-11-28T00:43:45.906Z,100328.25
2022-11-28T00:46:14.193Z,100326.56
2022-11-28T00:48:41.314Z,100326.59
2022-11-28T00:51:11.591Z,100322.34
2022-11-28T00:53:41.911Z,100237.63
2022-11-28T00:56:11.071Z,100318.00
2022-11-28T00:58:38.895Z,100321.38
2022-11-28T01:01:11.560Z,100273.88
2022-11-28T01:03:39.076Z,100221.47
2022-11-28T01:06:06.780Z,100285.81
2022-11-28T01:08:33.558Z,100337.72
2022-11-28T01:11:00.318Z,100223.19
2022-11-28T01:13:27.233Z,100308.69
2022-11-28T01:15:54.039Z,100250.28
2022-11-28T01:18:20.701Z,100321.44
2022-11-28T01:20:47.320Z,100303.53
2022-11-28T01:23:13.925Z,100249.41
2022-11-28T01:25:40.534Z,100298.53
2022-11-28T01:28:07.186Z,100241.88
2022-11-28T01:30:33.841Z,100270.59
2022-11-28T01:33:00.556Z,100235.09
2022-11-28T01:35:27.626Z,100159.81
2022-11-28T01:37:54.194Z,100296.03
2022-11-28T01:40:21.013Z,100301.13
2022-11-28T01:42:47.656Z,100298.56
2022-11-28T01:45:19.698Z,100337.69
2022-11-28T01:47:48.359Z,100225.81
2022-11-28T01:50:16.195Z,100177.53
2022-11-28T01:52:45.765Z,100338.69
2022-11-28T01:55:17.271Z,100302.88
2022-11-28T01:57:44.046Z,100298.63
2022-11-28T02:00:14.333Z,100303.69
2022-11-28T02:02:59.549Z,100298.56
2022-11-28T02:05:26.433Z,100261.19
2022-11-28T02:07:53.908Z,100294.16
2022-11-28T02:10:25.484Z,100253.53
2022-11-28T02:13:09.109Z,100206.31
2022-11-28T02:15:38.712Z,100290.75
2022-11-28T02:18:22.958Z,100184.25
2022-11-28T02:21:18.393Z,100295.91
2022-11-28T02:24:03.693Z,100299.25
2022-11-28T02:26:39.129Z,100292.41
2022-11-28T02:29:16.614Z,100209.47
2022-11-28T02:32:28.413Z,100293.13
2022-11-28T02:35:02.873Z,100269.47
2022-11-28T02:37:54.967Z,100298.38
2022-11-28T02:40:44.299Z,100248.44
2022-11-28T02:43:20.550Z,100294.97
2022-11-28T02:46:01.944Z,100298.41
2022-11-28T02:48:47.371Z,100269.16
2022-11-28T02:51:24.731Z,100272.38
2022-11-28T02:53:53.258Z,100196.25
2022-11-28T02:56:19.931Z,100226.66
2022-11-28T02:58:46.494Z,100203.91
2022-11-28T03:01:20.911Z,100302.94
2022-11-28T03:04:06.318Z,100306.31
2022-11-28T03:06:49.425Z,100192.00
2022-11-28T03:09:24.883Z,100305.41
2022-11-28T03:12:13.460Z,100303.72
2022-11-28T03:14:55.536Z,100277.81
2022-11-28T03:17:38.262Z,100271.50
2022-11-28T03:20:21.635Z,100293.69
2022-11-28T03:22:57.021Z,100304.53
2022-11-28T03:25:35.953Z,100229.53
2022-11-28T03:28:09.087Z,100318.03
2022-11-28T03:30:48.283Z,100331.56
2022-11-28T03:33:17.794Z,100340.00
2022-11-28T03:35:54.622Z,100263.72
2022-11-28T03:38:29.616Z,100363.94
2022-11-28T03:41:01.849Z,100246.88
2022-11-28T03:43:36.452Z,100316.16
2022-11-28T03:46:08.459Z,100289.06
2022-11-28T03:48:40.024Z,100318.66
2022-11-28T03:51:20.547Z,100358.75
2022-11-28T03:54:00.242Z,100325.50
2022-11-28T03:57:10.457Z,100251.94
2022-11-28T03:59:46.782Z,100263.78
2022-11-28T04:02:36.222Z,100316.56
2022-11-28T04:05:36.321Z,100322.19
2022-11-28T04:08:17.946Z,100323.13
2022-11-28T04:11:12.770Z,100322.31
2022-11-28T04:13:53.804Z,100361.59
2022-11-28T04:16:37.773Z,100286.59
2022-11-28T04:19:22.911Z,100221.41
2022-11-28T04:21:57.041Z,100300.97
2022-11-28T04:24:29.599Z,100277.50
2022-11-28T04:27:02.723Z,100295.16
2022-11-28T04:29:34.773Z,100143.81
2022-11-28T04:32:03.456Z,100324.09
2022-11-28T04:34:33.081Z,100319.81
2022-11-28T04:37:05.496Z,100324.84
2022-11-28T04:39:37.543Z,100317.19
2022-11-28T04:42:13.283Z,100282.44
2022-11-28T04:44:58.486Z,100319.69
2022-11-28T04:47:25.801Z,100018.50
2022-11-28T04:49:53.599Z,100244.56
2022-11-28T04:52:55.133Z,100330.88
2022-11-28T04:55:52.354Z,100333.47
2022-11-28T04:58:34.193Z,100303.78
2022-11-28T05:01:04.815Z,100327.50
2022-11-28T05:03:32.103Z,100338.56
2022-11-28T05:05:58.745Z,100161.56
2022-11-28T05:08:25.415Z,100236.00
2022-11-28T05:10:52.050Z,100331.72
2022-11-28T05:13:18.711Z,100326.59
2022-11-28T05:15:45.516Z,100281.78
2022-11-28T05:18:12.135Z,100315.59
2022-11-28T05:20:39.264Z,100343.50
2022-11-28T05:23:06.572Z,100348.66
2022-11-28T05:25:33.234Z,100330.13
2022-11-28T05:28:00.224Z,100289.44
2022-11-28T05:30:26.882Z,100339.44
2022-11-28T05:32:53.597Z,100360.59
2022-11-28T05:35:20.100Z,100359.78
2022-11-28T05:37:49.621Z,100332.72
2022-11-28T05:40:16.563Z,100236.97
2022-11-28T05:42:43.087Z,100323.34
2022-11-28T05:45:10.067Z,100268.31
2022-11-28T05:47:36.711Z,100360.66
2022-11-28T05:50:03.780Z,100354.66
2022-11-28T05:52:32.266Z,100359.84
2022-11-28T05:55:00.301Z,100363.28
2022-11-28T05:57:29.857Z,100368.31
2022-11-28T05:59:56.834Z,100370.00
2022-11-28T06:02:23.940Z,100346.31
2022-11-28T06:04:50.804Z,100223.44
2022-11-28T06:07:18.808Z,100307.28
2022-11-28T06:09:46.271Z,100390.25
2022-11-28T06:12:13.301Z,100279.97
2022-11-28T06:14:40.219Z,100245.16
2022-11-28T06:17:07.036Z,100340.03
2022-11-28T06:19:33.863Z,100379.94
2022-11-28T06:22:00.723Z,100374.78
2022-11-28T06:24:27.540Z,100376.44
2022-11-28T06:26:55.213Z,100308.66
2022-11-28T06:29:22.488Z,100365.28
2022-11-28T06:31:49.255Z,100161.28
2022-11-28T06:34:16.382Z,100344.94
2022-11-28T06:36:43.475Z,100374.66
2022-11-28T06:39:13.643Z,100382.41
2022-11-28T06:41:40.331Z,100330.03
2022-11-28T06:44:07.423Z,100378.13
2022-11-28T06:46:34.000Z,100380.66
2022-11-28T06:49:00.615Z,100382.47
2022-11-28T06:51:27.330Z,100383.31
2022-11-28T06:53:54.171Z,100378.13
2022-11-28T06:56:21.683Z,100306.22
2022-11-28T06:58:55.060Z,100369.84
2022-11-28T07:01:27.083Z,100311.34
2022-11-28T07:03:54.579Z,100385.91
2022-11-28T07:06:22.696Z,100389.34
2022-11-28T07:08:50.238Z,100232.63
2022-11-28T07:11:23.459Z,100389.28
2022-11-28T07:13:50.654Z,100387.59
2022-11-28T07:16:20.844Z,100362.34
2022-11-28T07:18:47.841Z,100255.44
2022-11-28T07:21:15.210Z,100354.50
2022-11-28T07:23:44.110Z,100363.81
2022-11-28T07:26:13.013Z,100326.56
2022-11-28T07:28:39.919Z,100359.50
2022-11-28T07:31:15.837Z,100351.25
2022-11-28T07:33:44.617Z,100261.19
2022-11-28T07:36:20.438Z,100408.44
2022-11-28T07:38:52.181Z,100442.47
2022-11-28T07:41:23.635Z,100244.75
2022-11-28T07:43:59.222Z,100319.22
2022-11-28T07:46:27.153Z,100327.19
2022-11-28T07:48:53.895Z,100391.38
2022-11-28T07:51:24.666Z,100323.63
2022-11-28T07:53:51.761Z,100364.13
2022-11-28T07:56:24.824Z,100347.41
2022-11-28T07:58:51.714Z,100082.09
2022-11-28T08:01:21.324Z,100372.19
2022-11-28T08:03:48.201Z,100301.31
2022-11-28T08:06:16.700Z,100373.34
2022-11-28T08:08:45.522Z,100405.66
2022-11-28T08:11:12.191Z,100324.63
2022-11-28T08:13:39.823Z,100408.31
2022-11-28T08:16:08.926Z,100414.22
2022-11-28T08:18:36.347Z,100417.66
2022-11-28T08:21:08.433Z,100335.66
2022-11-28T08:23:36.171Z,100424.59
2022-11-28T08:26:04.913Z,100312.66
2022-11-28T08:28:32.098Z,100432.16
2022-11-28T08:31:01.486Z,100426.19
2022-11-28T08:33:28.201Z,100390.66
2022-11-28T08:35:54.855Z,100401.94
2022-11-28T08:38:21.522Z,100375.03
2022-11-28T08:40:50.807Z,100430.84
2022-11-28T08:43:17.481Z,100431.78
2022-11-28T08:45:44.910Z,100329.38
2022-11-28T08:48:11.586Z,100214.31
2022-11-28T08:50:38.214Z,100440.53
2022-11-28T08:53:08.103Z,100437.16
2022-11-28T08:55:40.524Z,100438.91
2022-11-28T08:58:08.584Z,100277.81
2022-11-28T09:00:35.441Z,100330.28
2022-11-28T09:03:02.326Z,100441.22
2022-11-28T09:05:30.168Z,100446.31
2022-11-28T09:07:57.054Z,100324.22
2022-11-28T09:10:25.023Z,100436.84
2022-11-28T09:12:52.406Z,100340.22
2022-11-28T09:15:19.260Z,100435.16
2022-11-28T09:17:46.360Z,100433.34
2022-11-28T09:20:13.335Z,100304.63
2022-11-28T09:22:42.584Z,100483.56
2022-11-28T09:25:09.404Z,100446.81
2022-11-28T09:27:35.991Z,100423.00
2022-11-28T09:30:02.792Z,100423.88
2022-11-28T09:32:29.395Z,100403.59
2022-11-28T09:34:56.082Z,100208.09
2022-11-28T09:37:22.826Z,100425.00
2022-11-28T09:40:12.012Z,100331.78
2022-11-28T09:42:44.906Z,100438.47
2022-11-28T09:45:17.265Z,100452.97
2022-11-28T09:47:47.901Z,100362.44
2022-11-28T09:50:20.923Z,100397.97
2022-11-28T09:53:05.938Z,100481.03
2022-11-28T09:55:40.970Z,100450.28
2022-11-28T09:58:16.224Z,100518.44
2022-11-28T10:01:15.922Z,100463.75
2022-11-28T10:04:14.826Z,100394.16
2022-11-28T10:17:04.240Z,100303.53
2022-11-28T10:19:57.577Z,100414.47
2022-11-28T10:22:30.457Z,100441.53
2022-11-28T10:25:00.714Z,100380.53
2022-11-28T10:27:34.921Z,100444.19
2022-11-28T10:30:15.551Z,100380.63
2022-11-28T10:32:43.784Z,100449.31
2022-11-28T10:35:28.627Z,100469.81
2022-11-28T10:37:55.534Z,100439.09
2022-11-28T10:40:41.248Z,100440.81
2022-11-28T10:43:30.504Z,100445.16
2022-11-28T10:46:12.498Z,100445.16
2022-11-28T10:48:41.893Z,100447.78
2022-11-28T10:51:17.509Z,100475.94
2022-11-28T10:54:00.814Z,100426.75
2022-11-28T10:56:51.170Z,100483.63
2022-11-28T10:59:29.677Z,100447.75
2022-11-28T11:01:58.230Z,100346.03
2022-11-28T11:04:27.725Z,100445.97
2022-11-28T11:07:14.893Z,100363.97
2022-11-28T11:09:45.392Z,100421.22
2022-11-28T11:12:20.622Z,100468.91
2022-11-28T11:14:47.579Z,100336.78
2022-11-28T11:17:36.727Z,100394.63
2022-11-28T11:20:26.133Z,100413.09
2022-11-28T11:23:13.357Z,100509.13
2022-11-28T11:26:10.243Z,100455.41
2022-11-28T11:28:50.334Z,100467.91
2022-11-28T11:31:27.245Z,100359.38
2022-11-28T11:34:03.426Z,100366.13
2022-11-28T11:36:33.159Z,100476.28
2022-11-28T11:39:12.472Z,100475.50
2022-11-28T11:41:47.554Z,100401.91
2022-11-28T11:44:14.184Z,100477.22
2022-11-28T11:47:05.630Z,100225.78
2022-11-28T11:49:39.782Z,100487.56
2022-11-28T11:52:22.915Z,100491.81
2022-11-28T11:54:52.577Z,100495.16
2022-11-28T11:57:37.664Z,100514.00
2022-11-28T12:00:18.738Z,100437.53
2022-11-28T12:02:59.948Z,100370.63
2022-11-28T12:05:41.784Z,100433.47
2022-11-28T12:08:36.011Z,100505.63
2022-11-28T12:11:29.677Z,100505.69
2022-11-28T12:14:03.227Z,100474.59
2022-11-28T12:17:10.515Z,100476.97
2022-11-28T12:19:55.236Z,100509.13
2022-11-28T12:22:30.809Z,100510.91
2022-11-28T12:25:09.354Z,100509.97
2022-11-28T12:27:57.589Z,100566.25
2022-11-28T12:30:27.078Z,100513.38
2022-11-28T12:33:07.027Z,100547.50
2022-11-28T12:35:42.435Z,100524.44
2022-11-28T12:38:56.933Z,100526.19
2022-11-28T12:41:46.642Z,100533.03
2022-11-28T12:44:38.037Z,100531.41
2022-11-28T12:47:26.083Z,100442.50
2022-11-28T12:50:08.141Z,100529.00
2022-11-28T12:52:41.455Z,100468.72
2022-11-28T12:55:31.642Z,100420.41
2022-11-28T12:58:10.826Z,100532.41
2022-11-28T13:00:54.012Z,100474.97
2022-11-28T13:03:28.621Z,100530.66
2022-11-28T13:06:16.573Z,100534.16
2022-11-28T13:08:56.252Z,100533.31
2022-11-28T13:11:47.582Z,100532.44
2022-11-28T13:14:23.060Z,100543.53
2022-11-28T13:16:52.324Z,100536.69
2022-11-28T13:19:48.609Z,100447.66
2022-11-28T13:22:23.737Z,100490.16
2022-11-28T13:25:00.878Z,100539.25
2022-11-28T13:27:36.787Z,100545.16
2022-11-28T13:30:23.884Z,100539.25
2022-11-28T13:33:01.310Z,100551.16
2022-11-28T13:35:29.279Z,100308.72
2022-11-28T13:41:52.623Z,100488.66
2022-11-28T13:44:23.021Z,100559.72
2022-11-28T13:46:51.515Z,100560.56
2022-11-28T13:49:27.682Z,100441.94
2022-11-28T13:52:18.893Z,100562.38
2022-11-28T13:54:55.321Z,100423.31
2022-11-28T13:57:29.675Z,100570.06
2022-11-28T14:00:04.520Z,100567.75
2022-11-28T14:02:45.384Z,100587.19
2022-11-28T14:05:27.414Z,100559.88
2022-11-28T14:07:56.392Z,100547.16
2022-11-28T14:10:45.044Z,100561.50
2022-11-28T14:13:30.898Z,100564.88
2022-11-28T14:16:19.814Z,100559.72
2022-11-28T14:19:28.238Z,100555.38
2022-11-28T14:22:17.075Z,100210.44
2022-11-28T14:25:24.091Z,100542.75
2022-11-28T14:27:58.794Z,100532.59
2022-11-28T14:30:28.441Z,100565.66
2022-11-28T14:32:58.402Z,100581.03
2022-11-28T14:35:50.540Z,100571.69
2022-11-28T14:38:30.082Z,100574.22
2022-11-28T14:41:03.096Z,100573.34
2022-11-28T14:43:31.291Z,100575.09
2022-11-28T14:46:16.127Z,100578.56
2022-11-28T14:48:58.189Z,100577.72
2022-11-28T14:52:09.824Z,100582.84
2022-11-28T14:54:44.424Z,100531.25
2022-11-28T14:57:21.818Z,100562.59
2022-11-28T14:59:50.173Z,100492.16
2022-11-28T15:02:23.442Z,100594.00
2022-11-28T15:05:18.768Z,100684.34
2022-11-28T15:08:13.833Z,100596.53
2022-11-28T15:11:02.804Z,100425.19
2022-11-28T15:14:02.445Z,100610.41
2022-11-28T15:16:31.936Z,100600.19
2022-11-28T15:19:08.081Z,100489.88
2022-11-28T15:21:46.707Z,100515.28
2022-11-28T15:24:32.608Z,100610.38
2022-11-28T15:27:19.105Z,100518.69
2022-11-28T15:30:00.172Z,100606.91
2022-11-28T15:32:29.856Z,100605.97
2022-11-28T15:35:03.063Z,100605.06
2022-11-28T15:37:34.317Z,100512.50
2022-11-28T15:40:04.352Z,100619.53
2022-11-28T15:42:33.947Z,100483.72
2022-11-28T15:45:19.654Z,100611.88
2022-11-28T15:47:48.248Z,100612.75
2022-11-28T15:50:18.271Z,100616.16
2022-11-28T15:52:58.001Z,100618.72
2022-11-28T15:55:29.609Z,100566.97
2022-11-28T15:58:30.728Z,100619.66
2022-11-28T16:01:26.791Z,100556.88
2022-11-28T16:03:59.264Z,100628.09
2022-11-28T16:06:32.634Z,100628.91
2022-11-28T16:09:04.068Z,100641.69
2022-11-28T16:11:32.638Z,100639.16
2022-11-28T16:14:06.563Z,100642.59
2022-11-28T16:16:36.820Z,100631.59
2022-11-28T16:19:08.278Z,100598.53
2022-11-28T16:21:43.763Z,100485.56
2022-11-28T16:24:27.553Z,100637.50
2022-11-28T16:27:01.862Z,100636.72
2022-11-28T16:29:34.697Z,100638.38
2022-11-28T16:32:40.758Z,100644.25
2022-11-28T16:35:12.604Z,100639.16
2022-11-28T16:37:39.872Z,100555.94
2022-11-28T16:40:14.649Z,100629.84
2022-11-28T16:42:41.579Z,100492.31
2022-11-28T16:45:11.605Z,100610.34
2022-11-28T16:47:39.821Z,100565.34
2022-11-28T16:50:15.352Z,100640.16
2022-11-28T16:52:49.898Z,100642.75
2022-11-28T16:55:28.646Z,100633.38
2022-11-28T16:58:07.368Z,100641.03
2022-11-28T17:00:36.794Z,100611.28
2022-11-28T17:03:04.153Z,100647.00
2022-11-28T17:05:31.556Z,100649.56
2022-11-28T17:07:58.702Z,100648.69
2022-11-28T17:10:25.902Z,100644.44
2022-11-28T17:12:52.726Z,100647.84
2022-11-28T17:15:21.868Z,100529.81
2022-11-28T17:17:51.600Z,100443.25
2022-11-28T17:20:18.275Z,100602.03
2022-11-28T17:22:47.935Z,100643.75
2022-11-28T17:25:19.880Z,100647.03
2022-11-28T17:27:50.630Z,100465.28
2022-11-28T17:30:19.788Z,100534.09
2022-11-28T17:32:51.874Z,100607.16
2022-11-28T17:35:25.100Z,100631.88
2022-11-28T17:37:51.846Z,100615.72
2022-11-28T17:40:33.633Z,100636.97
2022-11-28T17:43:01.298Z,100647.94
2022-11-28T17:45:31.660Z,100613.13
2022-11-28T17:47:58.817Z,100624.22
2022-11-28T17:50:27.522Z,100642.06
2022-11-28T17:52:54.512Z,100615.72
2022-11-28T17:55:22.231Z,100645.41
2022-11-28T17:57:48.955Z,100385.56
2022-11-28T18:00:16.967Z,100422.88
2022-11-28T18:02:45.917Z,100614.78
2022-11-28T18:05:12.971Z,100659.03
2022-11-28T18:07:41.501Z,100662.50
2022-11-28T18:10:11.305Z,100663.34
2022-11-28T18:12:39.438Z,100556.25
2022-11-28T18:15:12.811Z,100377.94
2022-11-28T18:17:39.541Z,100535.84
2022-11-28T18:20:07.696Z,100594.44
2022-11-28T18:22:34.701Z,100636.97
2022-11-28T18:25:02.738Z,100662.50
2022-11-28T18:27:29.590Z,100624.22
2022-11-28T18:29:56.677Z,100628.47
2022-11-28T18:32:23.510Z,100640.38
2022-11-28T18:34:53.042Z,100664.09
2022-11-28T18:37:20.851Z,100327.88
2022-11-28T18:39:47.786Z,100547.72
2022-11-28T18:42:14.793Z,100532.41
2022-11-28T18:44:42.944Z,100555.28
2022-11-28T18:47:09.592Z,100664.03
2022-11-28T18:49:36.261Z,100491.63
2022-11-28T18:52:03.188Z,100658.94
2022-11-28T18:54:31.101Z,100624.94
2022-11-28T18:56:58.094Z,100455.16
2022-11-28T18:59:25.136Z,100688.81
2022-11-28T19:01:52.902Z,100648.78
2022-11-28T19:04:19.704Z,100677.72
2022-11-28T19:06:48.355Z,100665.78
2022-11-28T19:09:17.457Z,100637.69
2022-11-28T19:11:44.830Z,100671.69
2022-11-28T19:14:18.783Z,100681.88
2022-11-28T19:16:49.313Z,100558.66
2022-11-28T19:19:20.329Z,100687.78
2022-11-28T19:21:48.758Z,100639.38
2022-11-28T19:24:15.860Z,100677.63
2022-11-28T19:26:42.521Z,100627.56
2022-11-28T19:29:09.640Z,100683.53
2022-11-28T19:31:39.616Z,100608.75
2022-11-28T19:34:14.961Z,100664.00
2022-11-28T19:36:44.987Z,100673.38
2022-11-28T19:39:30.136Z,100658.09
2022-11-28T19:41:57.383Z,100601.16
2022-11-28T19:44:24.792Z,100675.06
2022-11-28T19:46:54.385Z,100674.22
2022-11-28T19:49:23.423Z,100636.00
2022-11-28T19:51:51.095Z,100664.03
2022-11-28T19:54:19.771Z,100414.44
2022-11-28T19:56:48.000Z,100672.56
2022-11-28T19:59:14.968Z,100673.38
2022-11-28T20:01:42.987Z,100673.44
2022-11-28T20:04:10.471Z,100612.16
2022-11-28T20:06:37.962Z,100674.97
2022-11-28T20:09:08.886Z,100675.84
2022-11-28T20:11:39.879Z,100337.97
2022-11-28T20:14:19.705Z,100717.66
2022-11-28T20:16:49.141Z,100532.38
2022-11-28T20:19:17.956Z,100647.84
2022-11-28T20:21:46.082Z,100692.03
2022-11-28T20:24:15.794Z,100643.53
2022-11-28T20:26:44.574Z,100685.09
2022-11-28T20:29:14.805Z,100654.47
2022-11-28T20:31:47.629Z,100688.47
2022-11-28T20:34:18.110Z,100558.63
2022-11-28T20:36:51.138Z,100624.81
2022-11-28T20:39:18.433Z,100514.41
2022-11-28T20:41:46.197Z,100576.31
2022-11-28T20:44:12.967Z,100683.25
2022-11-28T20:46:44.100Z,100689.25
2022-11-28T20:49:11.171Z,100691.03
2022-11-28T20:51:37.878Z,100698.72
2022-11-28T20:54:06.117Z,100701.31
2022-11-28T20:56:58.018Z,100697.09
2022-11-28T20:59:23.653Z,100692.03
2022-11-28T21:01:50.571Z,100629.13
2022-11-28T21:04:18.300Z,100698.81
2022-11-28T21:06:47.264Z,100695.38
2022-11-28T21:09:15.177Z,100700.50
2022-11-28T21:11:57.009Z,100714.16
2022-11-28T21:14:25.920Z,100701.34
2022-11-28T21:16:52.639Z,100553.56
2022-11-28T21:19:19.419Z,100570.53
2022-11-28T21:21:46.257Z,100548.44
2022-11-28T21:24:14.048Z,100711.59
2022-11-28T21:26:45.376Z,100702.22
2022-11-28T21:29:16.593Z,100696.22
2022-11-28T21:31:45.003Z,100703.91
2022-11-28T21:34:16.870Z,100697.91
2022-11-28T21:36:44.562Z,100697.03
2022-11-28T21:39:18.568Z,100726.03
2022-11-28T21:41:46.241Z,100635.78
2022-11-28T21:44:12.935Z,100623.09
2022-11-28T21:46:39.897Z,100563.69
2022-11-28T21:49:06.805Z,100697.84
2022-11-28T21:51:37.866Z,100639.22
2022-11-28T21:54:04.675Z,100589.16
2022-11-28T21:56:31.465Z,100701.19
2022-11-28T21:58:58.338Z,100664.72
2022-11-28T22:01:25.099Z,100669.00
2022-11-28T22:03:53.555Z,100642.63
2022-11-28T22:06:25.160Z,100703.84
2022-11-28T22:08:53.834Z,100710.66
2022-11-28T22:11:22.845Z,100668.97
2022-11-28T22:13:50.828Z,100704.66
2022-11-28T22:16:20.571Z,100638.41
2022-11-28T22:18:50.554Z,100662.13
2022-11-28T22:24:06.223Z,100546.66
2022-11-28T22:26:34.061Z,100669.78
2022-11-28T22:29:04.079Z,100677.44
2022-11-28T22:31:31.918Z,100560.22
2022-11-28T22:33:58.938Z,100702.00
2022-11-28T22:36:25.702Z,100540.72
2022-11-28T22:38:58.984Z,100692.63
2022-11-28T22:41:29.224Z,100690.06
2022-11-28T22:44:01.154Z,100766.00
2022-11-28T22:46:30.309Z,100649.28
2022-11-28T22:49:02.065Z,100601.72
2022-11-28T22:51:30.374Z,100650.19
2022-11-28T22:54:00.271Z,100426.06
2022-11-28T22:56:30.048Z,100688.34
2022-11-28T22:58:58.093Z,100678.91
2022-11-28T23:01:27.390Z,100605.13
2022-11-28T23:03:55.421Z,100690.03
2022-11-28T23:06:28.874Z,100424.38
2022-11-28T23:09:00.186Z,100694.31
2022-11-28T23:11:30.319Z,100657.78
2022-11-28T23:13:58.506Z,100580.53
2022-11-28T23:16:28.937Z,100690.81
2022-11-28T23:18:59.040Z,100566.88
2022-11-28T23:21:30.366Z,100691.66
2022-11-28T23:23:57.333Z,100631.38
2022-11-28T23:26:27.637Z,100481.09
2022-11-28T23:28:54.695Z,100669.56
2022-11-28T23:31:26.207Z,100646.56
2022-11-28T23:33:54.974Z,100685.63
2022-11-28T23:36:25.867Z,100676.41
2022-11-28T23:38:56.494Z,100709.56
2022-11-28T23:41:24.590Z,100568.56
2022-11-28T23:43:51.360Z,100544.75
2022-11-28T23:46:19.893Z,100484.47
2022-11-28T23:48:47.217Z,100692.47
2022-11-28T23:51:15.207Z,100679.72
2022-11-28T23:53:42.425Z,100611.75
2022-11-28T23:56:36.355Z,100568.41
2022-11-28T23:59:06.723Z,100686.47
